Search for airport 
image banner adimage banner adimage banner ad
image banner ad

CYRA - Rae Lakes

Located in Gameti, Canada

ICAO - CYRA, IATA - YRA

Data provided by Airmate  

General information

Coordinates: N64°6'58" W117°18'35"
Elevation is 724 feet MSL.
Magnetic variation is 19.4008° East
View others Airports in Northwest Territories

Operational data

Special qualification required
Current time UTC:
Current local time:
Weather
METAR: CYRA 221507Z 15011G16KT 120V180 15SM FEW100 03/01 A2974 RMK AC1 AC TR SNW CVR/NIL SLP087
TAF: TAF CYRA 221546Z 2216/2224 15012G22KT P6SM SKC FM222000 15014G24KT P6SM SCT220 RMK NXT FCST BY 221900Z
View NOTAMs / SUP AIP / TFR affecting this airport [VIEW]
Communications frequencies: [VIEW]

Runways:

RWY identifierQFULength (ft)Width (ft)SurfaceLDA (ft)
14136°3000100GRAVE3000
32316°3000100GRAVE3000

Airport contact information

Address: Gameti Canada

Satellite view of CYRA